sensor_id;sensor_type;location;lat;lon;timestamp;P1;durP1;ratioP1;P2;durP2;ratioP2
82028;SDS011;71590;52.216;13.448;2024-01-16T00:01:25;10.27;;;7.47;;
82028;SDS011;71590;52.216;13.448;2024-01-16T00:03:51;12.43;;;8.90;;
82028;SDS011;71590;52.216;13.448;2024-01-16T00:06:17;12.53;;;8.80;;
82028;SDS011;71590;52.216;13.448;2024-01-16T00:08:44;4.33;;;3.77;;
82028;SDS011;71590;52.216;13.448;2024-01-16T00:11:11;4.67;;;3.33;;
82028;SDS011;71590;52.216;13.448;2024-01-16T00:13:37;4.40;;;3.40;;
82028;SDS011;71590;52.216;13.448;2024-01-16T00:16:04;4.13;;;3.40;;
82028;SDS011;71590;52.216;13.448;2024-01-16T00:18:30;4.97;;;2.93;;
82028;SDS011;71590;52.216;13.448;2024-01-16T00:20:57;4.83;;;3.57;;
82028;SDS011;71590;52.216;13.448;2024-01-16T00:23:23;4.17;;;3.43;;
82028;SDS011;71590;52.216;13.448;2024-01-16T00:25:51;4.73;;;3.00;;
82028;SDS011;71590;52.216;13.448;2024-01-16T00:28:17;7.93;;;5.07;;
82028;SDS011;71590;52.216;13.448;2024-01-16T00:30:46;8.70;;;4.47;;
82028;SDS011;71590;52.216;13.448;2024-01-16T00:33:12;4.73;;;3.60;;
82028;SDS011;71590;52.216;13.448;2024-01-16T00:35:38;4.33;;;2.97;;
82028;SDS011;71590;52.216;13.448;2024-01-16T00:38:05;3.97;;;3.20;;
82028;SDS011;71590;52.216;13.448;2024-01-16T00:40:32;2.93;;;2.33;;
82028;SDS011;71590;52.216;13.448;2024-01-16T00:42:58;2.90;;;2.10;;
82028;SDS011;71590;52.216;13.448;2024-01-16T00:45:24;3.40;;;2.43;;
82028;SDS011;71590;52.216;13.448;2024-01-16T00:47:51;3.63;;;2.73;;
82028;SDS011;71590;52.216;13.448;2024-01-16T00:50:17;2.63;;;1.80;;
82028;SDS011;71590;52.216;13.448;2024-01-16T00:52:44;1.70;;;1.60;;
82028;SDS011;71590;52.216;13.448;2024-01-16T00:55:10;2.20;;;2.00;;
82028;SDS011;71590;52.216;13.448;2024-01-16T00:57:37;2.73;;;2.10;;
82028;SDS011;71590;52.216;13.448;2024-01-16T01:00:04;2.07;;;1.80;;
82028;SDS011;71590;52.216;13.448;2024-01-16T01:02:30;5.20;;;2.50;;
82028;SDS011;71590;52.216;13.448;2024-01-16T01:04:57;4.63;;;2.33;;
82028;SDS011;71590;52.216;13.448;2024-01-16T01:07:23;3.30;;;2.63;;
82028;SDS011;71590;52.216;13.448;2024-01-16T01:09:51;2.97;;;2.60;;
82028;SDS011;71590;52.216;13.448;2024-01-16T01:12:18;3.00;;;2.70;;
82028;SDS011;71590;52.216;13.448;2024-01-16T01:14:44;3.97;;;2.50;;
82028;SDS011;71590;52.216;13.448;2024-01-16T01:17:10;4.83;;;2.73;;
82028;SDS011;71590;52.216;13.448;2024-01-16T01:19:37;3.83;;;2.70;;
82028;SDS011;71590;52.216;13.448;2024-01-16T01:22:03;6.63;;;3.57;;
82028;SDS011;71590;52.216;13.448;2024-01-16T01:24:30;3.83;;;3.10;;
82028;SDS011;71590;52.216;13.448;2024-01-16T01:26:56;3.93;;;3.37;;
82028;SDS011;71590;52.216;13.448;2024-01-16T01:29:24;4.87;;;3.13;;
82028;SDS011;71590;52.216;13.448;2024-01-16T01:31:50;3.57;;;3.27;;
82028;SDS011;71590;52.216;13.448;2024-01-16T01:34:17;7.83;;;4.13;;
82028;SDS011;71590;52.216;13.448;2024-01-16T01:36:43;6.53;;;4.17;;
82028;SDS011;71590;52.216;13.448;2024-01-16T01:39:10;4.87;;;4.17;;
82028;SDS011;71590;52.216;13.448;2024-01-16T01:41:37;6.60;;;4.70;;
82028;SDS011;71590;52.216;13.448;2024-01-16T01:44:05;5.67;;;4.60;;
82028;SDS011;71590;52.216;13.448;2024-01-16T01:46:32;6.93;;;4.63;;
82028;SDS011;71590;52.216;13.448;2024-01-16T01:48:58;8.03;;;4.70;;
82028;SDS011;71590;52.216;13.448;2024-01-16T01:51:25;6.23;;;4.77;;
82028;SDS011;71590;52.216;13.448;2024-01-16T01:53:51;6.27;;;4.67;;
82028;SDS011;71590;52.216;13.448;2024-01-16T01:56:19;6.93;;;4.63;;
82028;SDS011;71590;52.216;13.448;2024-01-16T01:58:47;5.80;;;4.17;;
82028;SDS011;71590;52.216;13.448;2024-01-16T02:01:14;6.30;;;4.23;;
82028;SDS011;71590;52.216;13.448;2024-01-16T02:03:42;5.93;;;4.77;;
82028;SDS011;71590;52.216;13.448;2024-01-16T02:06:09;7.33;;;5.03;;
82028;SDS011;71590;52.216;13.448;2024-01-16T02:08:36;12.20;;;6.10;;
82028;SDS011;71590;52.216;13.448;2024-01-16T02:11:02;4.07;;;3.10;;
82028;SDS011;71590;52.216;13.448;2024-01-16T02:13:29;5.10;;;2.47;;
82028;SDS011;71590;52.216;13.448;2024-01-16T02:15:55;5.20;;;2.80;;
82028;SDS011;71590;52.216;13.448;2024-01-16T02:18:22;5.13;;;2.53;;
82028;SDS011;71590;52.216;13.448;2024-01-16T02:20:48;4.60;;;3.23;;
82028;SDS011;71590;52.216;13.448;2024-01-16T02:23:15;6.43;;;2.90;;
82028;SDS011;71590;52.216;13.448;2024-01-16T02:25:42;5.80;;;2.10;;
82028;SDS011;71590;52.216;13.448;2024-01-16T02:28:08;5.70;;;2.00;;
82028;SDS011;71590;52.216;13.448;2024-01-16T02:30:35;5.50;;;2.40;;
82028;SDS011;71590;52.216;13.448;2024-01-16T02:33:01;4.63;;;1.93;;
82028;SDS011;71590;52.216;13.448;2024-01-16T02:35:30;6.97;;;2.40;;
82028;SDS011;71590;52.216;13.448;2024-01-16T02:37:56;3.53;;;2.40;;
82028;SDS011;71590;52.216;13.448;2024-01-16T02:40:23;3.60;;;2.57;;
82028;SDS011;71590;52.216;13.448;2024-01-16T02:42:49;4.47;;;2.53;;
82028;SDS011;71590;52.216;13.448;2024-01-16T02:45:15;2.90;;;2.30;;
82028;SDS011;71590;52.216;13.448;2024-01-16T02:47:42;3.73;;;2.27;;
82028;SDS011;71590;52.216;13.448;2024-01-16T02:50:08;5.53;;;2.27;;
82028;SDS011;71590;52.216;13.448;2024-01-16T02:52:38;5.53;;;2.37;;
82028;SDS011;71590;52.216;13.448;2024-01-16T02:55:04;3.87;;;2.67;;
82028;SDS011;71590;52.216;13.448;2024-01-16T02:57:31;3.57;;;2.30;;
82028;SDS011;71590;52.216;13.448;2024-01-16T02:59:57;6.03;;;2.43;;
82028;SDS011;71590;52.216;13.448;2024-01-16T03:02:24;4.37;;;2.47;;
82028;SDS011;71590;52.216;13.448;2024-01-16T03:04:50;3.37;;;2.10;;
82028;SDS011;71590;52.216;13.448;2024-01-16T03:07:17;4.53;;;2.50;;
82028;SDS011;71590;52.216;13.448;2024-01-16T03:09:43;3.27;;;1.50;;
82028;SDS011;71590;52.216;13.448;2024-01-16T03:12:09;3.57;;;2.10;;
82028;SDS011;71590;52.216;13.448;2024-01-16T03:14:36;3.50;;;1.97;;
82028;SDS011;71590;52.216;13.448;2024-01-16T03:17:03;3.03;;;2.10;;
82028;SDS011;71590;52.216;13.448;2024-01-16T03:19:29;3.73;;;1.70;;
82028;SDS011;71590;52.216;13.448;2024-01-16T03:21:56;4.47;;;1.70;;
82028;SDS011;71590;52.216;13.448;2024-01-16T03:24:22;3.93;;;1.80;;
82028;SDS011;71590;52.216;13.448;2024-01-16T03:26:49;1.83;;;1.60;;
82028;SDS011;71590;52.216;13.448;2024-01-16T03:29:15;3.67;;;2.00;;
82028;SDS011;71590;52.216;13.448;2024-01-16T03:31:42;4.17;;;1.57;;
82028;SDS011;71590;52.216;13.448;2024-01-16T03:34:09;2.00;;;1.40;;
82028;SDS011;71590;52.216;13.448;2024-01-16T03:36:37;3.27;;;1.30;;
82028;SDS011;71590;52.216;13.448;2024-01-16T03:39:04;2.37;;;1.37;;
82028;SDS011;71590;52.216;13.448;2024-01-16T03:41:31;2.63;;;1.50;;
82028;SDS011;71590;52.216;13.448;2024-01-16T03:43:58;3.93;;;1.43;;
82028;SDS011;71590;52.216;13.448;2024-01-16T03:46:24;2.40;;;1.40;;
82028;SDS011;71590;52.216;13.448;2024-01-16T03:48:51;4.77;;;1.97;;
82028;SDS011;71590;52.216;13.448;2024-01-16T03:51:17;2.47;;;1.60;;
82028;SDS011;71590;52.216;13.448;2024-01-16T03:53:47;1.77;;;1.40;;
82028;SDS011;71590;52.216;13.448;2024-01-16T03:56:15;3.13;;;1.53;;
82028;SDS011;71590;52.216;13.448;2024-01-16T03:58:41;2.07;;;1.30;;
82028;SDS011;71590;52.216;13.448;2024-01-16T04:01:08;2.30;;;1.40;;
82028;SDS011;71590;52.216;13.448;2024-01-16T04:03:34;3.60;;;1.37;;
82028;SDS011;71590;52.216;13.448;2024-01-16T04:06:01;2.73;;;1.70;;
82028;SDS011;71590;52.216;13.448;2024-01-16T04:08:28;3.47;;;1.70;;
82028;SDS011;71590;52.216;13.448;2024-01-16T04:10:54;3.63;;;2.00;;
82028;SDS011;71590;52.216;13.448;2024-01-16T04:13:21;3.17;;;1.97;;
82028;SDS011;71590;52.216;13.448;2024-01-16T04:15:47;4.67;;;1.73;;
82028;SDS011;71590;52.216;13.448;2024-01-16T04:18:14;2.60;;;1.80;;
82028;SDS011;71590;52.216;13.448;2024-01-16T04:20:41;3.23;;;1.90;;
82028;SDS011;71590;52.216;13.448;2024-01-16T04:23:07;5.77;;;3.07;;
82028;SDS011;71590;52.216;13.448;2024-01-16T04:25:34;4.03;;;3.00;;
82028;SDS011;71590;52.216;13.448;2024-01-16T04:28:16;5.93;;;2.73;;
82028;SDS011;71590;52.216;13.448;2024-01-16T04:30:42;3.23;;;2.70;;
82028;SDS011;71590;52.216;13.448;2024-01-16T04:33:09;6.40;;;2.50;;
82028;SDS011;71590;52.216;13.448;2024-01-16T04:35:35;3.43;;;2.47;;
82028;SDS011;71590;52.216;13.448;2024-01-16T04:38:02;3.60;;;2.27;;
82028;SDS011;71590;52.216;13.448;2024-01-16T04:40:29;4.13;;;2.60;;
82028;SDS011;71590;52.216;13.448;2024-01-16T04:42:55;4.50;;;2.90;;
82028;SDS011;71590;52.216;13.448;2024-01-16T04:45:22;3.97;;;2.33;;
82028;SDS011;71590;52.216;13.448;2024-01-16T04:47:49;6.00;;;3.37;;
82028;SDS011;71590;52.216;13.448;2024-01-16T04:50:16;4.30;;;3.40;;
82028;SDS011;71590;52.216;13.448;2024-01-16T04:52:43;8.13;;;3.50;;
82028;SDS011;71590;52.216;13.448;2024-01-16T04:55:09;8.57;;;6.13;;
82028;SDS011;71590;52.216;13.448;2024-01-16T04:57:35;8.80;;;5.73;;
82028;SDS011;71590;52.216;13.448;2024-01-16T05:00:02;6.80;;;3.60;;
82028;SDS011;71590;52.216;13.448;2024-01-16T05:02:33;5.83;;;4.30;;
82028;SDS011;71590;52.216;13.448;2024-01-16T05:05:00;6.33;;;3.53;;
82028;SDS011;71590;52.216;13.448;2024-01-16T05:07:26;5.60;;;3.00;;
82028;SDS011;71590;52.216;13.448;2024-01-16T05:09:53;5.73;;;4.10;;
82028;SDS011;71590;52.216;13.448;2024-01-16T05:12:21;4.53;;;3.40;;
82028;SDS011;71590;52.216;13.448;2024-01-16T05:14:48;5.63;;;3.40;;
82028;SDS011;71590;52.216;13.448;2024-01-16T05:17:15;5.00;;;4.00;;
82028;SDS011;71590;52.216;13.448;2024-01-16T05:19:41;5.00;;;4.27;;
82028;SDS011;71590;52.216;13.448;2024-01-16T05:22:09;5.43;;;3.97;;
82028;SDS011;71590;52.216;13.448;2024-01-16T05:24:36;5.90;;;4.80;;
82028;SDS011;71590;52.216;13.448;2024-01-16T05:27:02;5.43;;;4.23;;
82028;SDS011;71590;52.216;13.448;2024-01-16T05:29:30;7.70;;;5.20;;
82028;SDS011;71590;52.216;13.448;2024-01-16T05:31:57;6.80;;;5.27;;
82028;SDS011;71590;52.216;13.448;2024-01-16T05:34:24;6.93;;;4.53;;
82028;SDS011;71590;52.216;13.448;2024-01-16T05:36:50;4.97;;;4.17;;
82028;SDS011;71590;52.216;13.448;2024-01-16T05:39:16;6.83;;;4.90;;
82028;SDS011;71590;52.216;13.448;2024-01-16T05:41:43;5.67;;;4.60;;
82028;SDS011;71590;52.216;13.448;2024-01-16T05:44:10;5.80;;;4.30;;
82028;SDS011;71590;52.216;13.448;2024-01-16T05:46:36;5.07;;;3.87;;
82028;SDS011;71590;52.216;13.448;2024-01-16T05:49:02;5.67;;;3.97;;
82028;SDS011;71590;52.216;13.448;2024-01-16T05:51:30;5.63;;;4.53;;
82028;SDS011;71590;52.216;13.448;2024-01-16T05:53:56;6.57;;;4.80;;
82028;SDS011;71590;52.216;13.448;2024-01-16T05:56:23;8.40;;;5.30;;
82028;SDS011;71590;52.216;13.448;2024-01-16T05:58:49;7.80;;;5.73;;
82028;SDS011;71590;52.216;13.448;2024-01-16T06:01:16;8.90;;;6.27;;
82028;SDS011;71590;52.216;13.448;2024-01-16T06:03:42;7.07;;;5.33;;
82028;SDS011;71590;52.216;13.448;2024-01-16T06:06:11;5.83;;;4.27;;
82028;SDS011;71590;52.216;13.448;2024-01-16T06:08:38;5.87;;;3.60;;
82028;SDS011;71590;52.216;13.448;2024-01-16T06:11:04;7.33;;;4.23;;
82028;SDS011;71590;52.216;13.448;2024-01-16T06:13:30;5.33;;;3.57;;
82028;SDS011;71590;52.216;13.448;2024-01-16T06:15:58;5.83;;;3.80;;
82028;SDS011;71590;52.216;13.448;2024-01-16T06:18:24;5.43;;;3.80;;
82028;SDS011;71590;52.216;13.448;2024-01-16T06:20:51;5.67;;;4.07;;
82028;SDS011;71590;52.216;13.448;2024-01-16T06:23:17;5.83;;;4.20;;
82028;SDS011;71590;52.216;13.448;2024-01-16T06:25:44;6.37;;;4.30;;
82028;SDS011;71590;52.216;13.448;2024-01-16T06:28:10;6.37;;;3.70;;
82028;SDS011;71590;52.216;13.448;2024-01-16T06:30:37;8.47;;;4.33;;
82028;SDS011;71590;52.216;13.448;2024-01-16T06:33:04;4.40;;;3.70;;
82028;SDS011;71590;52.216;13.448;2024-01-16T06:35:31;4.77;;;4.20;;
82028;SDS011;71590;52.216;13.448;2024-01-16T06:37:57;6.67;;;4.40;;
82028;SDS011;71590;52.216;13.448;2024-01-16T06:40:24;6.53;;;4.37;;
82028;SDS011;71590;52.216;13.448;2024-01-16T06:42:51;5.17;;;3.90;;
82028;SDS011;71590;52.216;13.448;2024-01-16T06:45:17;5.30;;;4.10;;
82028;SDS011;71590;52.216;13.448;2024-01-16T06:47:45;5.13;;;3.93;;
82028;SDS011;71590;52.216;13.448;2024-01-16T06:50:14;4.90;;;4.17;;
82028;SDS011;71590;52.216;13.448;2024-01-16T06:52:41;5.97;;;3.47;;
82028;SDS011;71590;52.216;13.448;2024-01-16T06:55:07;5.97;;;4.60;;
82028;SDS011;71590;52.216;13.448;2024-01-16T06:57:34;6.00;;;4.67;;
82028;SDS011;71590;52.216;13.448;2024-01-16T07:00:00;5.53;;;4.03;;
82028;SDS011;71590;52.216;13.448;2024-01-16T07:02:27;5.23;;;4.00;;
82028;SDS011;71590;52.216;13.448;2024-01-16T07:04:53;5.57;;;4.43;;
82028;SDS011;71590;52.216;13.448;2024-01-16T07:07:21;5.83;;;5.00;;
82028;SDS011;71590;52.216;13.448;2024-01-16T07:09:47;5.40;;;4.83;;
82028;SDS011;71590;52.216;13.448;2024-01-16T07:12:14;5.23;;;4.73;;
82028;SDS011;71590;52.216;13.448;2024-01-16T07:14:40;6.57;;;5.13;;
82028;SDS011;71590;52.216;13.448;2024-01-16T07:17:07;7.27;;;5.00;;
82028;SDS011;71590;52.216;13.448;2024-01-16T07:19:34;6.03;;;4.90;;
82028;SDS011;71590;52.216;13.448;2024-01-16T07:22:00;6.57;;;5.03;;
82028;SDS011;71590;52.216;13.448;2024-01-16T07:24:27;5.73;;;5.13;;
82028;SDS011;71590;52.216;13.448;2024-01-16T07:26:53;6.00;;;5.10;;
82028;SDS011;71590;52.216;13.448;2024-01-16T07:29:20;7.73;;;5.80;;
82028;SDS011;71590;52.216;13.448;2024-01-16T07:31:47;6.23;;;4.97;;
82028;SDS011;71590;52.216;13.448;2024-01-16T07:34:13;8.40;;;6.33;;
82028;SDS011;71590;52.216;13.448;2024-01-16T07:36:43;8.67;;;5.27;;
82028;SDS011;71590;52.216;13.448;2024-01-16T07:39:10;6.03;;;5.43;;
82028;SDS011;71590;52.216;13.448;2024-01-16T07:41:36;8.10;;;5.43;;
82028;SDS011;71590;52.216;13.448;2024-01-16T07:44:03;6.87;;;4.90;;
82028;SDS011;71590;52.216;13.448;2024-01-16T07:46:29;7.10;;;4.80;;
82028;SDS011;71590;52.216;13.448;2024-01-16T07:48:55;6.20;;;5.27;;
82028;SDS011;71590;52.216;13.448;2024-01-16T07:51:22;5.83;;;4.47;;
82028;SDS011;71590;52.216;13.448;2024-01-16T07:53:51;6.47;;;5.00;;
82028;SDS011;71590;52.216;13.448;2024-01-16T07:56:18;6.27;;;4.33;;
82028;SDS011;71590;52.216;13.448;2024-01-16T07:58:44;6.30;;;4.77;;
82028;SDS011;71590;52.216;13.448;2024-01-16T08:01:10;5.40;;;4.37;;
82028;SDS011;71590;52.216;13.448;2024-01-16T08:03:37;7.00;;;4.23;;
82028;SDS011;71590;52.216;13.448;2024-01-16T08:06:05;6.03;;;4.53;;
82028;SDS011;71590;52.216;13.448;2024-01-16T08:08:32;4.17;;;3.77;;
82028;SDS011;71590;52.216;13.448;2024-01-16T08:11:00;5.73;;;4.03;;
82028;SDS011;71590;52.216;13.448;2024-01-16T08:13:27;7.20;;;4.27;;
82028;SDS011;71590;52.216;13.448;2024-01-16T08:15:54;4.10;;;3.70;;
82028;SDS011;71590;52.216;13.448;2024-01-16T08:18:21;4.37;;;3.83;;
82028;SDS011;71590;52.216;13.448;2024-01-16T08:20:47;6.80;;;4.63;;
82028;SDS011;71590;52.216;13.448;2024-01-16T08:23:14;4.33;;;3.93;;
82028;SDS011;71590;52.216;13.448;2024-01-16T08:25:40;7.93;;;4.67;;
82028;SDS011;71590;52.216;13.448;2024-01-16T08:28:06;5.03;;;4.23;;
82028;SDS011;71590;52.216;13.448;2024-01-16T08:30:33;6.33;;;4.30;;
82028;SDS011;71590;52.216;13.448;2024-01-16T08:32:59;4.23;;;3.83;;
82028;SDS011;71590;52.216;13.448;2024-01-16T08:35:26;5.27;;;4.00;;
82028;SDS011;71590;52.216;13.448;2024-01-16T08:37:52;6.97;;;4.47;;
82028;SDS011;71590;52.216;13.448;2024-01-16T08:40:19;4.80;;;3.80;;
82028;SDS011;71590;52.216;13.448;2024-01-16T08:42:45;4.47;;;3.53;;
82028;SDS011;71590;52.216;13.448;2024-01-16T08:45:12;5.00;;;3.83;;
82028;SDS011;71590;52.216;13.448;2024-01-16T08:47:38;4.57;;;3.40;;
82028;SDS011;71590;52.216;13.448;2024-01-16T08:50:05;4.60;;;3.93;;
82028;SDS011;71590;52.216;13.448;2024-01-16T08:52:32;5.50;;;3.50;;
82028;SDS011;71590;52.216;13.448;2024-01-16T08:54:58;4.20;;;3.80;;
82028;SDS011;71590;52.216;13.448;2024-01-16T08:57:24;4.83;;;3.30;;
82028;SDS011;71590;52.216;13.448;2024-01-16T08:59:54;4.20;;;3.80;;
82028;SDS011;71590;52.216;13.448;2024-01-16T09:02:21;4.00;;;3.60;;
82028;SDS011;71590;52.216;13.448;2024-01-16T09:04:47;5.10;;;3.57;;
82028;SDS011;71590;52.216;13.448;2024-01-16T09:07:16;3.83;;;3.43;;
82028;SDS011;71590;52.216;13.448;2024-01-16T09:09:43;4.50;;;3.27;;
82028;SDS011;71590;52.216;13.448;2024-01-16T09:12:09;4.13;;;3.50;;
82028;SDS011;71590;52.216;13.448;2024-01-16T09:14:36;3.67;;;3.27;;
82028;SDS011;71590;52.216;13.448;2024-01-16T09:17:02;5.03;;;3.30;;
82028;SDS011;71590;52.216;13.448;2024-01-16T09:19:29;3.77;;;3.30;;
82028;SDS011;71590;52.216;13.448;2024-01-16T09:21:55;4.27;;;3.40;;
82028;SDS011;71590;52.216;13.448;2024-01-16T09:24:22;4.20;;;3.27;;
82028;SDS011;71590;52.216;13.448;2024-01-16T09:26:48;4.93;;;3.47;;
82028;SDS011;71590;52.216;13.448;2024-01-16T09:29:15;4.30;;;2.70;;
82028;SDS011;71590;52.216;13.448;2024-01-16T09:31:42;4.40;;;3.00;;
82028;SDS011;71590;52.216;13.448;2024-01-16T09:34:08;4.43;;;3.20;;
82028;SDS011;71590;52.216;13.448;2024-01-16T09:36:36;3.53;;;2.60;;
82028;SDS011;71590;52.216;13.448;2024-01-16T09:39:04;3.07;;;2.50;;
82028;SDS011;71590;52.216;13.448;2024-01-16T09:41:34;4.50;;;2.90;;
82028;SDS011;71590;52.216;13.448;2024-01-16T09:44:01;3.83;;;3.10;;
82028;SDS011;71590;52.216;13.448;2024-01-16T09:46:27;4.27;;;2.70;;
82028;SDS011;71590;52.216;13.448;2024-01-16T09:48:54;2.90;;;2.47;;
82028;SDS011;71590;52.216;13.448;2024-01-16T09:51:22;3.10;;;2.80;;
82028;SDS011;71590;52.216;13.448;2024-01-16T09:53:48;3.13;;;2.20;;
82028;SDS011;71590;52.216;13.448;2024-01-16T09:56:15;2.80;;;2.37;;
82028;SDS011;71590;52.216;13.448;2024-01-16T09:58:45;6.33;;;2.83;;
82028;SDS011;71590;52.216;13.448;2024-01-16T10:01:13;5.60;;;3.10;;
82028;SDS011;71590;52.216;13.448;2024-01-16T10:03:40;3.27;;;2.50;;
82028;SDS011;71590;52.216;13.448;2024-01-16T10:06:10;4.50;;;3.00;;
82028;SDS011;71590;52.216;13.448;2024-01-16T10:08:37;3.53;;;2.70;;
82028;SDS011;71590;52.216;13.448;2024-01-16T10:11:04;3.83;;;2.50;;
82028;SDS011;71590;52.216;13.448;2024-01-16T10:13:31;5.23;;;3.10;;
82028;SDS011;71590;52.216;13.448;2024-01-16T10:15:58;3.20;;;2.40;;
82028;SDS011;71590;52.216;13.448;2024-01-16T10:18:26;4.00;;;2.73;;
82028;SDS011;71590;52.216;13.448;2024-01-16T10:20:53;4.17;;;2.63;;
82028;SDS011;71590;52.216;13.448;2024-01-16T10:23:23;3.70;;;2.67;;
82028;SDS011;71590;52.216;13.448;2024-01-16T10:26:04;6.23;;;3.17;;
82028;SDS011;71590;52.216;13.448;2024-01-16T10:28:30;5.27;;;2.87;;
82028;SDS011;71590;52.216;13.448;2024-01-16T10:31:04;4.33;;;2.40;;
82028;SDS011;71590;52.216;13.448;2024-01-16T10:33:31;4.73;;;2.40;;
82028;SDS011;71590;52.216;13.448;2024-01-16T10:36:09;5.40;;;2.90;;
82028;SDS011;71590;52.216;13.448;2024-01-16T10:38:40;4.57;;;2.80;;
82028;SDS011;71590;52.216;13.448;2024-01-16T10:43:37;6.50;;;2.90;;
82028;SDS011;71590;52.216;13.448;2024-01-16T10:48:36;6.00;;;3.03;;
82028;SDS011;71590;52.216;13.448;2024-01-16T10:51:03;4.67;;;3.00;;
82028;SDS011;71590;52.216;13.448;2024-01-16T10:53:32;5.33;;;2.77;;
82028;SDS011;71590;52.216;13.448;2024-01-16T10:56:02;4.27;;;3.00;;
82028;SDS011;71590;52.216;13.448;2024-01-16T10:58:29;3.73;;;2.90;;
82028;SDS011;71590;52.216;13.448;2024-01-16T11:00:59;5.93;;;3.70;;
82028;SDS011;71590;52.216;13.448;2024-01-16T11:03:29;5.77;;;3.57;;
82028;SDS011;71590;52.216;13.448;2024-01-16T11:06:00;5.63;;;2.80;;
82028;SDS011;71590;52.216;13.448;2024-01-16T11:08:28;5.10;;;3.23;;
82028;SDS011;71590;52.216;13.448;2024-01-16T11:10:58;4.13;;;2.93;;
82028;SDS011;71590;52.216;13.448;2024-01-16T11:13:25;4.87;;;3.17;;
82028;SDS011;71590;52.216;13.448;2024-01-16T11:15:51;4.67;;;3.33;;
82028;SDS011;71590;52.216;13.448;2024-01-16T11:18:19;4.63;;;3.23;;
82028;SDS011;71590;52.216;13.448;2024-01-16T11:20:46;7.07;;;3.67;;
82028;SDS011;71590;52.216;13.448;2024-01-16T11:23:31;4.60;;;3.40;;
82028;SDS011;71590;52.216;13.448;2024-01-16T11:25:58;5.80;;;3.50;;
82028;SDS011;71590;52.216;13.448;2024-01-16T11:28:28;6.30;;;3.13;;
82028;SDS011;71590;52.216;13.448;2024-01-16T11:30:57;8.63;;;3.00;;
82028;SDS011;71590;52.216;13.448;2024-01-16T11:36:00;7.67;;;3.10;;
82028;SDS011;71590;52.216;13.448;2024-01-16T11:38:27;7.30;;;3.33;;
82028;SDS011;71590;52.216;13.448;2024-01-16T11:40:54;7.90;;;3.30;;
82028;SDS011;71590;52.216;13.448;2024-01-16T11:43:35;4.40;;;2.87;;
82028;SDS011;71590;52.216;13.448;2024-01-16T11:46:02;7.93;;;3.90;;
82028;SDS011;71590;52.216;13.448;2024-01-16T11:48:28;7.73;;;3.27;;
82028;SDS011;71590;52.216;13.448;2024-01-16T11:50:55;4.87;;;3.10;;
82028;SDS011;71590;52.216;13.448;2024-01-16T11:53:38;7.23;;;3.90;;
82028;SDS011;71590;52.216;13.448;2024-01-16T12:01:04;6.73;;;3.40;;
82028;SDS011;71590;52.216;13.448;2024-01-16T12:03:31;5.60;;;3.07;;
82028;SDS011;71590;52.216;13.448;2024-01-16T12:06:01;4.27;;;2.77;;
82028;SDS011;71590;52.216;13.448;2024-01-16T12:08:29;5.70;;;2.97;;
82028;SDS011;71590;52.216;13.448;2024-01-16T12:10:56;6.03;;;3.20;;
82028;SDS011;71590;52.216;13.448;2024-01-16T12:13:23;6.03;;;3.30;;
82028;SDS011;71590;52.216;13.448;2024-01-16T12:15:58;8.17;;;3.13;;
82028;SDS011;71590;52.216;13.448;2024-01-16T12:18:25;5.00;;;2.60;;
82028;SDS011;71590;52.216;13.448;2024-01-16T12:21:10;4.70;;;2.53;;
82028;SDS011;71590;52.216;13.448;2024-01-16T12:23:37;8.17;;;3.47;;
82028;SDS011;71590;52.216;13.448;2024-01-16T12:26:19;5.10;;;3.10;;
82028;SDS011;71590;52.216;13.448;2024-01-16T12:28:49;7.47;;;3.10;;
82028;SDS011;71590;52.216;13.448;2024-01-16T12:31:18;5.10;;;2.70;;
82028;SDS011;71590;52.216;13.448;2024-01-16T12:33:45;7.17;;;2.83;;
82028;SDS011;71590;52.216;13.448;2024-01-16T12:36:26;3.27;;;2.27;;
82028;SDS011;71590;52.216;13.448;2024-01-16T12:38:56;4.33;;;2.43;;
82028;SDS011;71590;52.216;13.448;2024-01-16T12:41:23;5.77;;;2.40;;
82028;SDS011;71590;52.216;13.448;2024-01-16T12:44:04;4.97;;;2.30;;
82028;SDS011;71590;52.216;13.448;2024-01-16T12:46:41;7.07;;;3.10;;
82028;SDS011;71590;52.216;13.448;2024-01-16T12:49:07;6.43;;;2.30;;
82028;SDS011;71590;52.216;13.448;2024-01-16T12:51:36;7.97;;;2.73;;
82028;SDS011;71590;52.216;13.448;2024-01-16T12:54:10;8.43;;;2.50;;
82028;SDS011;71590;52.216;13.448;2024-01-16T12:56:36;5.97;;;2.30;;
82028;SDS011;71590;52.216;13.448;2024-01-16T12:59:10;3.80;;;1.97;;
82028;SDS011;71590;52.216;13.448;2024-01-16T13:01:41;9.50;;;2.90;;
82028;SDS011;71590;52.216;13.448;2024-01-16T13:04:08;6.40;;;2.70;;
82028;SDS011;71590;52.216;13.448;2024-01-16T13:06:34;5.60;;;3.07;;
82028;SDS011;71590;52.216;13.448;2024-01-16T13:09:06;7.00;;;2.40;;
82028;SDS011;71590;52.216;13.448;2024-01-16T13:12:18;6.50;;;2.50;;
82028;SDS011;71590;52.216;13.448;2024-01-16T13:14:31;6.90;;;2.60;;
82028;SDS011;71590;52.216;13.448;2024-01-16T13:16:57;5.97;;;2.20;;
82028;SDS011;71590;52.216;13.448;2024-01-16T13:19:23;8.50;;;2.70;;
82028;SDS011;71590;52.216;13.448;2024-01-16T13:21:50;8.27;;;3.10;;
82028;SDS011;71590;52.216;13.448;2024-01-16T13:24:17;8.50;;;3.13;;
82028;SDS011;71590;52.216;13.448;2024-01-16T13:26:46;5.53;;;2.90;;
82028;SDS011;71590;52.216;13.448;2024-01-16T13:29:13;5.40;;;2.30;;
82028;SDS011;71590;52.216;13.448;2024-01-16T13:31:39;6.07;;;2.63;;
82028;SDS011;71590;52.216;13.448;2024-01-16T13:34:06;4.90;;;2.30;;
82028;SDS011;71590;52.216;13.448;2024-01-16T13:36:33;4.27;;;2.10;;
82028;SDS011;71590;52.216;13.448;2024-01-16T13:39:20;6.30;;;2.37;;
82028;SDS011;71590;52.216;13.448;2024-01-16T13:41:46;4.97;;;2.40;;
82028;SDS011;71590;52.216;13.448;2024-01-16T13:44:13;7.47;;;3.07;;
82028;SDS011;71590;52.216;13.448;2024-01-16T13:46:40;6.70;;;2.67;;
82028;SDS011;71590;52.216;13.448;2024-01-16T13:49:26;5.23;;;2.10;;
82028;SDS011;71590;52.216;13.448;2024-01-16T13:51:53;4.00;;;2.33;;
82028;SDS011;71590;52.216;13.448;2024-01-16T13:54:19;6.80;;;2.03;;
82028;SDS011;71590;52.216;13.448;2024-01-16T13:56:46;5.13;;;1.97;;
82028;SDS011;71590;52.216;13.448;2024-01-16T13:59:31;7.70;;;2.17;;
82028;SDS011;71590;52.216;13.448;2024-01-16T14:01:58;4.43;;;1.97;;
82028;SDS011;71590;52.216;13.448;2024-01-16T14:04:24;3.13;;;1.90;;
82028;SDS011;71590;52.216;13.448;2024-01-16T14:06:51;8.30;;;2.43;;
82028;SDS011;71590;52.216;13.448;2024-01-16T14:09:37;5.00;;;2.17;;
82028;SDS011;71590;52.216;13.448;2024-01-16T14:12:04;5.50;;;2.10;;
82028;SDS011;71590;52.216;13.448;2024-01-16T14:14:32;4.20;;;2.03;;
82028;SDS011;71590;52.216;13.448;2024-01-16T14:16:58;4.27;;;2.63;;
82028;SDS011;71590;52.216;13.448;2024-01-16T14:19:27;4.63;;;2.40;;
82028;SDS011;71590;52.216;13.448;2024-01-16T14:21:56;6.70;;;2.37;;
82028;SDS011;71590;52.216;13.448;2024-01-16T14:24:22;6.03;;;2.40;;
82028;SDS011;71590;52.216;13.448;2024-01-16T14:26:49;5.23;;;2.37;;
82028;SDS011;71590;52.216;13.448;2024-01-16T14:29:15;7.40;;;2.83;;
82028;SDS011;71590;52.216;13.448;2024-01-16T14:31:42;5.97;;;2.70;;
82028;SDS011;71590;52.216;13.448;2024-01-16T14:34:15;5.13;;;2.87;;
82028;SDS011;71590;52.216;13.448;2024-01-16T14:36:42;5.47;;;2.70;;
82028;SDS011;71590;52.216;13.448;2024-01-16T14:39:09;7.23;;;3.23;;
82028;SDS011;71590;52.216;13.448;2024-01-16T14:41:44;3.83;;;2.23;;
82028;SDS011;71590;52.216;13.448;2024-01-16T14:44:11;4.13;;;2.70;;
82028;SDS011;71590;52.216;13.448;2024-01-16T14:46:37;5.37;;;2.87;;
82028;SDS011;71590;52.216;13.448;2024-01-16T14:49:04;4.83;;;2.63;;